- বাংলা English

 ****Phone:+880 2 9135742, 9123838, 9141437 | Fax: +880 2 8118230, 9119230, 9103908 | E-mail: info@bmd.gov.bd , swc@bmd.gov.bd   | IVR: 1090 |

TAF

VGHS 241100Z 2412/2518 34006KT 3500 HZ NSC
        BECMG 2418/2420 VRB03KT 2500 BR/HZ NSC
        BECMG 2422/2424 00000KT 1500 BR NSC
        TEMPO 2500/2503 00000KT 0800 FG BKN008
        BECMG 2503/2505 30007KT 1800 BR NSC
        BECMG 2505/2507 36005KT 2500 HZ NSC
        BECMG 2507/2509 30004KT 3500 HZ NSC=

VGSY 241000Z 2412/2518 30005KT 4000HZ NSC
        BECMG 2418/2420 05005KT 2500BR SCT015
        BECMG 2423/2501 00000KT 1000MIFG BKN007
        BECMG 2503/2505 10005KT 3000HZ NSC=

VGEG 241100Z 2412/2518 34008KT 3500 HZ NSC
        BECMG 2420/2422 02004KT 3100 HZ NSC
        TEMPO 2423/2503 00000KT 0800 FG BKN007
        BECMG 2504/2506 02005KT 3200 HZ NSC
        BECMG 2510/2512 35008KT 3500 HZ NSC
        BECMG 2516/2518 34008KT 3300 HZ NSC=